Time;durP1;ratioP1;P1;durP2;ratioP2;P2;SDS_P1;SDS_P2;PMS_P1;PMS_P2;Temp;Humidity;BMP_temperature;BMP_pressure;BME280_temperature;BME280_humidity;BME280_pressure;Samples;Min_cycle;Max_cycle;Signal;HPM_P1;HPM_P2
2023/04/25 05:25:49;;;;;;;4.77;3.23;;;;;;;;;;5139435;27;20775;-82
2023/04/25 05:34:10;;;;;;;3.97;2.93;;;5.50;99.90;;;;;;5136139;27;20272;-83
2023/04/25 05:38:31;;;;;;;5.63;3.63;;;6.00;99.90;;;;;;5136749;27;20266;-82
2023/04/25 05:42:57;;;;;;;6.17;3.80;;;6.20;99.90;;;;;;5135621;27;20269;-84
2023/04/25 05:46:48;;;;;;;7.73;3.03;;;;;;;;;;5140478;27;20285;-84
2023/04/25 05:50:48;;;;;;;10.47;3.80;;;6.70;99.90;;;;;;5169582;27;20274;-82
2023/04/25 05:54:53;;;;;;;5.07;3.33;;;6.90;99.90;;;;;;5136133;27;20270;-83
2023/04/25 05:59:52;;;;;;;7.77;3.17;;;7.10;99.90;;;;;;5135122;27;20272;-82
2023/04/25 06:04:53;;;;;;;7.47;3.23;;;6.80;99.90;;;;;;5139181;27;20268;-83
2023/04/25 06:09:54;;;;;;;4.90;2.73;;;;;;;;;;5141484;27;20272;-85
2023/04/25 06:14:15;;;;;;;4.03;2.47;;;6.70;99.90;;;;;;5137828;27;20632;-83
2023/04/25 06:17:58;;;;;;;4.97;3.47;;;7.00;99.90;;;;;;5137870;27;20271;-84
2023/04/25 06:21:59;;;;;;;5.23;3.17;;;7.20;99.90;;;;;;5139922;27;20276;-83
2023/04/25 06:26:00;;;;;;;6.00;2.93;;;7.00;99.90;;;;;;5140758;27;20290;-83
2023/04/25 06:29:56;;;;;;;5.00;2.60;;;7.00;99.90;;;;;;5137945;27;20280;-83
2023/04/25 06:34:08;;;;;;;5.63;2.43;;;7.00;99.90;;;;;;5138597;27;20274;-84
2023/04/25 06:39:08;;;;;;;4.40;2.50;;;7.30;99.90;;;;;;5139961;27;20281;-83
2023/04/25 06:43:46;;;;;;;6.93;2.80;;;7.30;99.90;;;;;;5114924;27;20363;-83
2023/04/25 06:48:55;;;;;;;8.07;3.50;;;7.70;99.90;;;;;;5136218;27;20274;-83
2023/04/25 06:53:52;;;;;;;6.20;2.23;;;7.70;99.90;;;;;;5129122;27;20360;-82
2023/04/25 06:58:46;;;;;;;3.83;2.47;;;8.00;99.90;;;;;;5136587;27;20282;-83
2023/04/25 07:03:41;;;;;;;4.43;2.60;;;7.90;99.90;;;;;;5133887;27;20667;-81
2023/04/25 07:08:33;;;;;;;2.77;2.37;;;8.30;99.90;;;;;;5137666;27;20276;-83
2023/04/25 07:12:21;;;;;;;4.40;2.20;;;8.60;99.90;;;;;;5137120;27;20274;-84
2023/04/25 07:16:18;;;;;;;2.80;2.43;;;8.40;99.90;;;;;;5136937;27;20283;-83
2023/04/25 07:20:16;;;;;;;4.23;1.90;;;8.80;99.90;;;;;;5137100;27;20632;-82
2023/04/25 07:24:13;;;;;;;5.10;2.77;;;8.60;99.90;;;;;;5137039;27;20274;-83
2023/04/25 07:28:06;;;;;;;6.87;3.83;;;8.90;99.90;;;;;;5136851;27;20615;-82
2023/04/25 07:32:02;;;;;;;2.73;2.00;;;9.10;99.90;;;;;;5075738;28;20513;-82
2023/04/25 07:34:27;;;;;;;3.53;2.80;;;9.30;99.90;;;;;;5075041;28;20536;-82
2023/04/25 07:36:53;;;;;;;3.90;2.00;;;9.50;99.90;;;;;;5076020;28;20196;-82
2023/04/25 07:39:19;;;;;;;3.10;1.97;;;10.00;99.90;;;;;;5083737;28;20172;-83
2023/04/25 07:41:44;;;;;;;6.33;2.63;;;10.50;99.90;;;;;;5075449;28;20184;-84
2023/04/25 07:44:10;;;;;;;4.93;3.30;;;10.20;99.90;;;;;;5073737;28;20753;-82
2023/04/25 07:46:36;;;;;;;6.50;2.80;;;9.80;99.90;;;;;;5075243;28;20702;-82
2023/04/25 07:49:02;;;;;;;10.87;4.33;;;9.60;99.90;;;;;;5074186;28;20635;-83
2023/04/25 07:51:27;;;;;;;4.70;2.63;;;9.50;99.90;;;;;;5072496;28;20686;-83
2023/04/25 07:53:53;;;;;;;3.27;2.40;;;9.50;99.90;;;;;;5071925;28;20208;-84
2023/04/25 07:56:19;;;;;;;3.37;2.20;;;10.40;99.90;;;;;;5073085;28;20197;-82
2023/04/25 07:58:44;;;;;;;6.47;3.37;;;10.10;99.90;;;;;;5072924;28;20230;-82
2023/04/25 08:01:10;;;;;;;3.73;2.37;;;9.80;99.90;;;;;;5072580;28;20264;-82
2023/04/25 08:03:36;;;;;;;8.73;5.07;;;9.60;99.90;;;;;;5073290;28;20216;-82
2023/04/25 08:06:01;;;;;;;3.67;2.37;;;9.40;99.90;;;;;;5074036;28;20607;-82
2023/04/25 08:08:27;;;;;;;5.53;2.93;;;10.10;99.90;;;;;;5073366;28;20638;-83
2023/04/25 08:10:53;;;;;;;3.47;2.00;;;11.10;99.90;;;;;;5072638;28;20208;-83
2023/04/25 08:13:18;;;;;;;21.17;10.00;;;10.70;99.90;;;;;;5072616;28;20181;-84
2023/04/25 08:15:44;;;;;;;7.27;4.00;;;10.00;99.90;;;;;;5074074;28;20200;-83
2023/04/25 08:18:10;;;;;;;4.67;2.67;;;10.50;99.90;;;;;;5072904;28;20264;-82
2023/04/25 08:20:35;;;;;;;4.17;1.87;;;12.30;99.90;;;;;;5073711;28;20279;-80
2023/04/25 08:23:01;;;;;;;4.83;2.17;;;12.60;99.90;;;;;;5074223;28;20181;-81
2023/04/25 08:25:27;;;;;;;5.20;3.13;;;10.80;99.90;;;;;;5073615;28;20247;-81
2023/04/25 08:27:53;;;;;;;3.50;2.50;;;10.60;99.90;;;;;;5073039;28;20278;-80
2023/04/25 08:30:19;;;;;;;2.63;1.87;;;10.30;99.90;;;;;;5070407;28;20296;-80
2023/04/25 08:32:44;;;;;;;3.97;2.27;;;10.00;99.90;;;;;;5070906;28;20177;-80
2023/04/25 08:35:11;;;;;;;2.00;1.40;;;9.70;99.90;;;;;;5070937;28;20193;-80
2023/04/25 08:37:36;;;;;;;5.77;2.57;;;9.60;99.90;;;;;;5070763;28;20188;-80
2023/04/25 08:40:06;;;;;;;3.47;2.20;;;9.40;99.90;;;;;;5071102;28;20554;-82
2023/04/25 08:42:34;;;;;;;7.67;3.13;;;9.40;99.90;;;;;;5063703;28;20169;-84
2023/04/25 08:45:03;;;;;;;11.47;5.50;;;9.50;99.90;;;;;;5060337;28;20181;-83
2023/04/25 08:47:33;;;;;;;9.47;3.90;;;9.50;99.90;;;;;;5058499;28;20277;-84
2023/04/25 08:50:00;;;;;;;12.17;6.90;;;9.60;99.90;;;;;;5060112;28;20186;-85
2023/04/25 08:52:30;;;;;;;6.53;3.07;;;9.40;99.90;;;;;;5058537;28;20189;-83
2023/04/25 08:54:57;;;;;;;9.60;2.20;;;9.20;99.90;;;;;;5059773;28;20180;-82
2023/04/25 08:57:23;;;;;;;10.50;3.57;;;9.20;99.90;;;;;;5059908;28;20180;-83
2023/04/25 08:59:50;;;;;;;4.30;2.50;;;9.10;99.90;;;;;;5059498;28;20178;-84
2023/04/25 09:02:18;;;;;;;8.67;3.83;;;9.10;99.90;;;;;;5059046;28;20184;-83
2023/04/25 09:04:44;;;;;;;14.10;4.67;;;9.00;99.90;;;;;;5058501;28;20276;-84
2023/04/25 09:07:10;;;;;;;4.30;1.77;;;9.00;99.90;;;;;;5057629;28;20185;-82
2023/04/25 09:09:36;;;;;;;3.13;1.90;;;9.00;99.90;;;;;;5058938;28;20177;-82
2023/04/25 09:12:02;;;;;;;3.13;1.70;;;9.20;99.90;;;;;;5067139;28;20224;-82
2023/04/25 09:14:28;;;;;;;3.80;2.10;;;;;;;;;;5059856;28;20239;-85
2023/04/25 09:16:56;;;;;;;5.73;1.67;;;9.30;99.90;;;;;;5058717;28;20686;-83
2023/04/25 09:19:24;;;;;;;5.87;1.93;;;9.30;99.90;;;;;;5058672;28;20694;-85
2023/04/25 09:21:50;;;;;;;4.40;1.80;;;9.40;99.90;;;;;;5059716;28;20185;-85
2023/04/25 09:24:29;;;;;;;3.40;2.03;;;9.40;99.90;;;;;;5058024;28;20651;-83
2023/04/25 09:26:55;;;;;;;4.90;2.20;;;9.60;99.90;;;;;;5057774;28;20212;-82
2023/04/25 09:29:29;;;;;;;7.07;2.87;;;9.60;99.90;;;;;;5059254;28;20639;-82
2023/04/25 09:32:16;;;;;;;5.70;2.40;;;9.50;99.90;;;;;;5057649;28;20678;-84
2023/04/25 09:34:44;;;;;;;9.63;4.30;;;9.50;99.90;;;;;;5058852;28;20619;-83
2023/04/25 09:37:10;;;;;;;7.63;3.40;;;9.10;99.90;;;;;;5056711;28;20173;-79
2023/04/25 09:39:39;;;;;;;8.40;3.70;;;8.30;99.90;;;;;;5056606;28;20690;-82
2023/04/25 09:42:05;;;;;;;5.53;2.80;;;6.70;99.90;;;;;;5057228;28;20595;-82
2023/04/25 09:44:32;;;;;;;2.50;2.13;;;;;;;;;;5058627;28;20180;-82
2023/04/25 09:49:15;;;;;;;4.73;2.97;;;6.50;99.90;;;;;;5077293;28;20558;-81
2023/04/25 09:51:40;;;;;;;7.03;3.87;;;6.70;99.90;;;;;;5079515;28;20175;-82
2023/04/25 09:54:06;;;;;;;6.80;4.20;;;;;;;;;;5076483;28;20184;-82
2023/04/25 09:56:37;;;;;;;8.73;4.80;;;6.70;99.90;;;;;;5073436;28;20195;-81
2023/04/25 09:59:03;;;;;;;5.27;3.47;;;6.70;99.90;;;;;;5070669;28;20186;-83
2023/04/25 10:01:29;;;;;;;10.80;5.23;;;6.60;99.90;;;;;;5072668;28;20203;-82
2023/04/25 10:08:16;;;;;;;5.97;2.93;;;5.90;99.90;;;;;;5152309;27;20283;-84
2023/04/25 10:20:19;;;;;;;8.17;3.73;;;5.50;99.90;;;;;;5132094;27;20275;-75
2023/04/25 10:26:41;;;;;;;7.13;4.77;;;5.90;99.90;;;;;;5131812;27;20298;-74
2023/04/25 10:32:05;;;;;;;9.23;4.10;;;5.60;99.90;;;;;;5132111;27;20263;-74
2023/04/25 10:36:31;;;;;;;2.03;1.93;;;5.90;99.90;;;;;;5132001;27;20290;-74
2023/04/25 10:40:22;;;;;;;2.97;2.10;;;5.90;99.90;;;;;;5132134;27;20279;-75
2023/04/25 10:42:48;;;;;;;2.80;1.87;;;5.80;99.90;;;;;;5131891;28;20563;-75
2023/04/25 10:45:17;;;;;;;2.03;1.77;;;;;;;;;;5114285;28;20195;-75
2023/04/25 10:47:47;;;;;;;2.27;1.60;;;5.80;99.90;;;;;;5131785;28;20485;-76
2023/04/25 10:50:16;;;;;;;3.23;1.73;;;5.90;99.90;;;;;;5130340;28;20221;-75
2023/04/25 10:52:41;;;;;;;1.33;1.23;;;5.90;99.90;;;;;;5131607;27;20196;-75
2023/04/25 10:55:08;;;;;;;1.07;1.03;;;5.90;99.90;;;;;;5131645;27;20219;-75
2023/04/25 10:57:43;;;;;;;2.00;1.57;;;5.90;99.90;;;;;;5131790;27;20168;-75
2023/04/25 11:00:11;;;;;;;2.03;1.93;;;6.20;99.90;;;;;;5131387;27;20197;-75
2023/04/25 11:02:40;;;;;;;2.10;1.90;;;6.30;99.90;;;;;;5130193;28;20258;-77
2023/04/25 11:05:06;;;;;;;1.93;1.77;;;6.70;99.90;;;;;;5131690;27;20549;-75
2023/04/25 11:07:49;;;;;;;1.30;1.20;;;6.50;99.90;;;;;;5130078;28;20175;-75
2023/04/25 11:10:15;;;;;;;1.47;1.37;;;6.50;99.90;;;;;;5129917;28;20176;-75
2023/04/25 11:12:40;;;;;;;1.73;1.63;;;6.50;99.90;;;;;;5131487;27;20566;-76
2023/04/25 11:15:07;;;;;;;2.40;1.33;;;6.50;99.90;;;;;;5130117;28;20203;-77
2023/04/25 11:17:34;;;;;;;1.07;0.97;;;6.50;99.90;;;;;;5131270;27;20168;-77
2023/04/25 11:20:00;;;;;;;1.10;1.10;;;6.20;99.90;;;;;;5131146;27;20559;-74
2023/04/25 11:22:27;;;;;;;1.30;1.20;;;6.00;99.90;;;;;;5129862;28;20246;-76
2023/04/25 11:28:59;;;;;;;4.30;1.13;;;5.80;99.90;;;;;;5111509;27;20985;-74
2023/04/25 11:33:57;;;;;;;1.47;1.00;;;6.00;99.90;;;;;;5132303;27;20274;-75
2023/04/25 11:39:26;;;;;;;1.97;1.60;;;6.00;99.90;;;;;;5047509;27;20275;-75
2023/04/25 11:43:23;;;;;;;2.47;1.67;;;6.00;99.90;;;;;;5132086;27;20278;-75
2023/04/25 11:45:50;;;;;;;0.83;0.83;;;6.10;99.90;;;;;;5132066;28;20191;-75
2023/04/25 11:48:17;;;;;;;1.37;1.27;;;6.00;99.90;;;;;;5131929;27;20533;-75
2023/04/25 11:50:43;;;;;;;1.73;1.63;;;6.00;99.90;;;;;;5131701;27;20160;-75
2023/04/25 11:53:08;;;;;;;1.53;1.30;;;6.10;99.90;;;;;;5131782;27;20178;-75
2023/04/25 11:55:35;;;;;;;1.50;1.40;;;6.20;99.90;;;;;;5132176;27;20689;-75
2023/04/25 11:58:02;;;;;;;1.03;0.93;;;5.90;99.90;;;;;;5130326;28;20176;-75
2023/04/25 12:00:28;;;;;;;2.87;1.97;;;6.30;99.90;;;;;;5131358;27;20170;-75
2023/04/25 12:02:55;;;;;;;4.20;2.83;;;6.30;99.90;;;;;;5131481;27;20586;-75
2023/04/25 12:05:25;;;;;;;4.00;2.07;;;6.40;99.90;;;;;;5131199;28;20194;-75
2023/04/25 12:07:50;;;;;;;1.30;1.17;;;6.60;99.90;;;;;;5130066;28;20521;-76
2023/04/25 12:10:17;;;;;;;0.80;0.80;;;6.10;99.90;;;;;;5129933;28;20656;-75
2023/04/25 12:12:46;;;;;;;1.17;1.07;;;6.40;99.90;;;;;;5131258;27;20172;-75
2023/04/25 12:15:19;;;;;;;1.40;1.20;;;6.40;99.90;;;;;;5131559;27;20230;-75
2023/04/25 12:17:45;;;;;;;1.73;1.30;;;;;;;;;;5131556;27;20177;-75
2023/04/25 12:20:20;;;;;;;2.03;1.40;;;6.70;99.90;;;;;;5129821;28;20180;-75
2023/04/25 12:22:47;;;;;;;1.63;1.00;;;6.50;99.90;;;;;;5131365;27;20649;-76
2023/04/25 12:25:35;;;;;;;1.97;1.77;;;6.50;99.90;;;;;;5130993;27;20267;-75
2023/04/25 12:28:19;;;;;;;0.90;0.90;;;6.60;99.90;;;;;;5129924;28;20260;-76
2023/04/25 12:31:06;;;;;;;1.70;1.03;;;7.10;99.90;;;;;;5130866;27;20164;-75
2023/04/25 12:33:36;;;;;;;3.90;1.83;;;7.10;99.90;;;;;;5131102;27;20178;-75
2023/04/25 12:36:08;;;;;;;1.37;1.27;;;6.80;99.90;;;;;;5129549;28;20561;-75
2023/04/25 12:38:37;;;;;;;1.23;1.10;;;6.70;99.90;;;;;;5131008;27;20200;-75
2023/04/25 12:41:03;;;;;;;2.03;1.80;;;;;;;;;;5128993;28;20268;-75
2023/04/25 12:43:29;;;;;;;1.57;1.30;;;6.20;99.90;;;;;;5130724;28;20172;-74
2023/04/25 12:45:55;;;;;;;1.40;1.30;;;6.20;99.90;;;;;;5130588;27;20548;-74
2023/04/25 12:48:22;;;;;;;1.50;1.33;;;6.20;99.90;;;;;;5130718;27;20180;-76
2023/04/25 12:50:49;;;;;;;1.47;1.37;;;6.00;99.90;;;;;;5130303;27;20173;-74
2023/04/25 12:53:19;;;;;;;1.60;1.50;;;6.30;99.90;;;;;;5125108;27;20249;-74
2023/04/25 12:55:48;;;;;;;1.70;1.60;;;6.50;99.90;;;;;;5116587;28;20190;-74
2023/04/25 12:58:18;;;;;;;1.50;1.40;;;6.20;99.90;;;;;;5116817;28;20169;-74
2023/04/25 13:00:45;;;;;;;2.87;2.40;;;6.30;99.90;;;;;;5116546;28;20221;-74
2023/04/25 13:03:11;;;;;;;2.80;2.23;;;6.30;99.90;;;;;;5116683;28;20295;-74
2023/04/25 13:05:38;;;;;;;1.40;1.27;;;6.20;99.90;;;;;;5115374;28;20508;-74
2023/04/25 13:08:04;;;;;;;1.27;1.17;;;6.40;99.90;;;;;;5116563;28;20615;-74
2023/04/25 13:10:29;;;;;;;1.30;1.20;;;6.40;99.90;;;;;;5116646;28;20172;-75
2023/04/25 13:12:55;;;;;;;1.53;1.43;;;;;;;;;;5116460;28;20183;-74
2023/04/25 13:15:21;;;;;;;1.73;1.40;;;;;;;;;;5116378;28;20673;-74
2023/04/25 13:17:48;;;;;;;1.10;1.00;;;;;;;;;;5116567;28;20181;-74
2023/04/25 13:20:14;;;;;;;1.47;1.33;;;6.80;99.90;;;;;;5116259;28;20636;-74
2023/04/25 13:22:40;;;;;;;1.40;1.20;;;7.30;99.90;;;;;;5116175;28;20201;-74
2023/04/25 13:25:07;;;;;;;1.20;1.10;;;7.60;99.90;;;;;;5116073;28;20554;-74
2023/04/25 13:27:33;;;;;;;1.33;1.20;;;7.50;99.90;;;;;;5116244;28;20173;-74
2023/04/25 13:30:07;;;;;;;1.50;1.23;;;7.50;99.90;;;;;;5115989;28;20637;-74
2023/04/25 13:32:36;;;;;;;1.90;1.73;;;7.50;99.90;;;;;;5116208;28;20173;-74
2023/04/25 13:35:04;;;;;;;1.40;1.30;;;7.70;99.90;;;;;;5115916;28;20173;-75
2023/04/25 13:37:32;;;;;;;2.40;1.40;;;;;;;;;;5116050;28;20234;-75
2023/04/25 13:39:59;;;;;;;2.43;1.60;;;8.30;99.90;;;;;;5115704;28;20227;-75
2023/04/25 13:42:25;;;;;;;2.13;1.87;;;7.80;99.90;;;;;;5115481;28;20245;-74
2023/04/25 13:44:51;;;;;;;2.20;1.70;;;;;;;;;;5115973;28;20506;-75
2023/04/25 13:47:17;;;;;;;2.73;1.83;;;7.50;99.90;;;;;;5114550;28;20228;-76
2023/04/25 13:49:43;;;;;;;1.60;1.50;;;7.80;99.90;;;;;;5115484;28;20179;-74
2023/04/25 13:52:08;;;;;;;1.97;1.70;;;8.10;99.90;;;;;;5114344;28;20252;-75
2023/04/25 13:54:34;;;;;;;3.83;2.53;;;;;;;;;;5115867;28;20186;-75
2023/04/25 13:57:01;;;;;;;5.53;3.50;;;8.20;99.90;;;;;;5115787;28;20252;-74
2023/04/25 13:59:27;;;;;;;15.17;8.27;;;;;;;;;;5115461;28;20275;-74
2023/04/25 14:01:53;;;;;;;8.77;5.00;;;8.30;99.90;;;;;;5115422;28;20201;-76
2023/04/25 14:04:18;;;;;;;12.73;7.23;;;8.60;99.90;;;;;;5115297;28;20167;-74
2023/04/25 14:06:45;;;;;;;4.67;2.27;;;8.10;99.90;;;;;;5115177;28;20240;-74
2023/04/25 14:09:12;;;;;;;2.37;1.50;;;8.30;99.90;;;;;;5114057;28;20214;-74
2023/04/25 14:11:39;;;;;;;1.73;1.27;;;8.60;99.90;;;;;;5114006;28;20175;-74
2023/04/25 14:14:05;;;;;;;2.57;1.70;;;9.00;99.90;;;;;;5115512;28;20175;-74
2023/04/25 14:16:31;;;;;;;1.73;1.40;;;9.00;99.90;;;;;;5115142;28;20191;-74
2023/04/25 14:18:58;;;;;;;1.60;1.50;;;8.40;99.90;;;;;;5115159;28;20258;-74
2023/04/25 14:21:25;;;;;;;2.50;2.07;;;8.10;99.90;;;;;;5114903;28;20199;-74
2023/04/25 14:23:51;;;;;;;2.67;1.87;;;;;;;;;;5114966;28;20574;-74
2023/04/25 14:26:17;;;;;;;1.30;1.20;;;;;;;;;;5115001;28;20215;-74
2023/04/25 14:28:43;;;;;;;1.73;1.10;;;;;;;;;;5115196;28;20210;-74
2023/04/25 14:31:09;;;;;;;1.20;1.10;;;;;;;;;;5113519;28;20220;-75
2023/04/25 14:33:35;;;;;;;1.23;1.13;;;;;;;;;;5114953;28;20175;-74
2023/04/25 14:36:01;;;;;;;1.53;1.10;;;;;;;;;;5115035;28;20187;-75
2023/04/25 14:38:27;;;;;;;2.67;1.93;;;7.50;99.90;;;;;;5114841;28;20217;-76
2023/04/25 14:40:53;;;;;;;1.30;1.20;;;7.90;99.90;;;;;;5114670;28;20644;-74
2023/04/25 14:43:19;;;;;;;1.20;1.10;;;8.10;99.90;;;;;;5114555;28;20203;-74
2023/04/25 14:45:45;;;;;;;1.57;1.40;;;;;;;;;;5114949;28;20194;-75
2023/04/25 14:48:11;;;;;;;1.33;1.10;;;;;;;;;;5114616;28;20170;-74
2023/04/25 14:50:37;;;;;;;1.10;1.00;;;7.70;99.90;;;;;;5114479;28;20173;-74
2023/04/25 14:53:02;;;;;;;1.30;0.90;;;7.50;99.90;;;;;;5115118;28;20528;-76
2023/04/25 14:55:28;;;;;;;3.47;2.43;;;8.00;99.90;;;;;;5114447;28;20239;-74
2023/04/25 14:57:55;;;;;;;2.23;1.80;;;8.20;99.90;;;;;;5114301;28;20171;-76
2023/04/25 15:00:21;;;;;;;2.80;1.50;;;7.70;99.90;;;;;;5112862;28;20182;-74
2023/04/25 15:02:48;;;;;;;1.90;1.47;;;7.50;99.90;;;;;;5114542;27;20198;-76
2023/04/25 15:05:14;;;;;;;1.90;1.50;;;7.40;99.90;;;;;;5112986;28;20244;-74
2023/04/25 15:07:40;;;;;;;1.60;1.50;;;7.30;99.90;;;;;;5114313;28;20165;-75
2023/04/25 15:10:16;;;;;;;2.70;1.80;;;7.20;99.90;;;;;;5114096;28;20168;-74
2023/04/25 15:12:45;;;;;;;1.30;1.10;;;7.00;99.90;;;;;;5114401;28;20639;-74
2023/04/25 15:15:11;;;;;;;2.57;1.13;;;7.20;99.90;;;;;;5114169;28;20202;-74
2023/04/25 15:17:43;;;;;;;1.60;1.23;;;7.50;99.90;;;;;;5113968;28;20171;-74
2023/04/25 15:20:11;;;;;;;1.20;1.10;;;8.10;99.90;;;;;;5114221;28;20199;-74
2023/04/25 15:22:38;;;;;;;1.63;1.30;;;7.90;99.90;;;;;;5112692;28;20205;-74
2023/04/25 15:25:04;;;;;;;1.10;1.00;;;7.80;99.90;;;;;;5113943;28;20174;-74
2023/04/25 15:27:30;;;;;;;2.87;1.43;;;7.80;99.90;;;;;;5113920;28;20184;-74
2023/04/25 15:29:56;;;;;;;1.03;0.83;;;7.50;99.90;;;;;;5113892;28;20168;-74
2023/04/25 15:32:22;;;;;;;2.13;1.70;;;7.90;99.90;;;;;;5114280;28;20170;-74
2023/04/25 15:34:49;;;;;;;1.43;1.33;;;;;;;;;;5114128;28;20173;-74
2023/04/25 15:37:15;;;;;;;4.10;2.80;;;7.80;99.90;;;;;;5112677;28;20267;-74
2023/04/25 15:39:41;;;;;;;3.93;2.70;;;7.60;99.90;;;;;;5113779;28;20194;-75
2023/04/25 15:42:07;;;;;;;2.07;1.73;;;7.50;99.90;;;;;;5113557;28;20209;-74
2023/04/25 15:44:32;;;;;;;3.13;2.67;;;7.40;99.90;;;;;;5113799;28;20201;-74
2023/04/25 15:46:58;;;;;;;2.33;1.90;;;7.30;99.90;;;;;;5113842;28;20227;-74
2023/04/25 15:49:25;;;;;;;3.20;2.30;;;;;;;;;;5113857;28;20171;-74
2023/04/25 15:51:50;;;;;;;2.20;2.00;;;8.80;99.90;;;;;;5112402;28;20175;-75
2023/04/25 15:54:17;;;;;;;2.10;1.90;;;9.50;99.90;;;;;;5113757;28;20556;-74
2023/04/25 15:56:44;;;;;;;1.40;1.30;;;;;;;;;;5112221;28;20198;-74
2023/04/25 15:59:10;;;;;;;1.63;1.00;;;;;;;;;;5112250;28;20182;-74
2023/04/25 16:01:36;;;;;;;1.50;1.40;;;8.30;99.90;;;;;;5112160;28;20199;-75
2023/04/25 16:04:02;;;;;;;2.30;1.80;;;8.00;99.90;;;;;;5113687;28;20204;-74
2023/04/25 16:06:29;;;;;;;2.97;2.23;;;8.10;99.90;;;;;;5113480;28;20202;-74
2023/04/25 16:08:55;;;;;;;103.73;40.07;;;7.70;99.90;;;;;;5112375;28;20221;-76
2023/04/25 16:11:21;;;;;;;12.97;7.00;;;7.60;99.90;;;;;;5113458;28;20250;-74
2023/04/25 16:13:47;;;;;;;5.13;4.63;;;7.30;99.90;;;;;;5113488;28;20243;-74
2023/04/25 16:16:14;;;;;;;2.30;2.10;;;7.40;99.90;;;;;;5113697;28;20199;-75
2023/04/25 16:29:28;;;;;;;1.80;1.70;;;7.20;99.90;;;;;;5131655;27;20461;-76
2023/04/25 16:36:40;;;;;;;5.10;4.60;;;7.10;99.90;;;;;;5132237;27;20287;-74
2023/04/25 16:45:16;;;;;;;1.87;1.77;;;6.90;99.90;;;;;;5132565;27;20289;-76
2023/04/25 16:54:42;;;;;;;7.73;5.73;;;7.00;99.90;;;;;;5132178;27;20627;-75
2023/04/25 17:01:44;;;;;;;2.60;2.40;;;7.20;99.90;;;;;;5132088;27;20775;-74
